createdAt,value
2022-10-14T00:00:19.080Z,38.30
2022-10-14T00:00:42.428Z,39.78
2022-10-14T00:01:06.260Z,38.17
2022-10-14T00:01:31.747Z,37.47
2022-10-14T00:01:54.527Z,40.60
2022-10-14T00:02:17.408Z,38.45
2022-10-14T00:02:40.295Z,38.80
2022-10-14T00:03:03.044Z,38.50
2022-10-14T00:03:25.880Z,38.35
2022-10-14T00:03:48.675Z,40.47
2022-10-14T00:04:11.448Z,38.60
2022-10-14T00:04:34.109Z,40.22
2022-10-14T00:04:56.799Z,38.80
2022-10-14T00:05:19.519Z,40.80
2022-10-14T00:05:42.347Z,43.47
2022-10-14T00:06:05.769Z,40.13
2022-10-14T00:06:29.999Z,42.75
2022-10-14T00:06:52.624Z,42.70
2022-10-14T00:07:15.334Z,41.05
2022-10-14T00:07:38.094Z,42.70
2022-10-14T00:08:03.706Z,40.05
2022-10-14T00:08:26.622Z,38.72
2022-10-14T00:08:49.390Z,39.90
2022-10-14T00:09:12.320Z,41.10
2022-10-14T00:09:35.141Z,40.63
2022-10-14T00:09:57.920Z,38.90
2022-10-14T00:10:20.659Z,38.05
2022-10-14T00:10:43.269Z,38.80
2022-10-14T00:11:06.974Z,40.15
2022-10-14T00:11:30.826Z,41.53
2022-10-14T00:11:53.509Z,41.05
2022-10-14T00:12:16.317Z,40.75
2022-10-14T00:12:39.075Z,39.67
2022-10-14T00:13:03.229Z,38.78
2022-10-14T00:13:25.967Z,38.17
2022-10-14T00:13:48.680Z,39.03
2022-10-14T00:14:13.129Z,38.78
2022-10-14T00:14:36.847Z,38.63
2022-10-14T00:14:59.724Z,37.60
2022-10-14T00:15:22.414Z,39.03
2022-10-14T00:15:45.158Z,42.55
2022-10-14T00:16:09.071Z,44.38
2022-10-14T00:16:33.060Z,42.10
2022-10-14T00:16:55.974Z,41.47
2022-10-14T00:17:18.929Z,39.42
2022-10-14T00:17:41.797Z,40.35
2022-10-14T00:18:04.680Z,38.42
2022-10-14T00:18:27.306Z,38.75
2022-10-14T00:18:50.139Z,39.55
2022-10-14T00:19:13.398Z,37.55
2022-10-14T00:19:36.155Z,39.78
2022-10-14T00:19:59.580Z,39.20
2022-10-14T00:20:25.174Z,39.40
2022-10-14T00:20:54.894Z,41.58
2022-10-14T00:21:17.907Z,40.30
2022-10-14T00:21:42.706Z,40.88
2022-10-14T00:22:05.797Z,39.88
2022-10-14T00:22:28.576Z,40.20
2022-10-14T00:22:51.342Z,43.25
2022-10-14T00:23:14.060Z,45.20
2022-10-14T00:23:36.885Z,43.08
2022-10-14T00:23:59.580Z,40.92
2022-10-14T00:24:22.564Z,44.05
2022-10-14T00:24:45.344Z,42.85
2022-10-14T00:25:09.016Z,43.45
2022-10-14T00:25:31.825Z,46.78
2022-10-14T00:25:54.720Z,42.80
2022-10-14T00:26:19.287Z,39.85
2022-10-14T00:26:42.009Z,40.95
2022-10-14T00:27:04.875Z,44.78
2022-10-14T00:27:27.585Z,40.75
2022-10-14T00:27:50.239Z,41.95
2022-10-14T00:28:14.564Z,39.40
2022-10-14T00:28:37.308Z,38.90
2022-10-14T00:29:00.179Z,39.75
2022-10-14T00:29:23.073Z,42.20
2022-10-14T00:29:45.769Z,41.80
2022-10-14T00:30:10.431Z,44.40
2022-10-14T00:30:33.773Z,40.58
2022-10-14T00:31:00.582Z,40.30
2022-10-14T00:31:23.353Z,40.40
2022-10-14T00:31:46.091Z,40.30
2022-10-14T00:32:08.812Z,41.30
2022-10-14T00:32:31.856Z,39.75
2022-10-14T00:32:54.600Z,41.30
2022-10-14T00:33:17.271Z,43.78
2022-10-14T00:33:40.021Z,43.50
2022-10-14T00:34:02.720Z,45.72
2022-10-14T00:34:25.442Z,42.03
2022-10-14T00:34:48.242Z,41.50
2022-10-14T00:35:10.940Z,41.25
2022-10-14T00:35:33.603Z,42.67
2022-10-14T00:35:57.212Z,43.08
2022-10-14T00:36:20.857Z,41.03
2022-10-14T00:36:43.638Z,42.10
2022-10-14T00:37:06.494Z,42.38
2022-10-14T00:37:29.269Z,40.95
2022-10-14T00:37:51.928Z,45.25
2022-10-14T00:38:14.593Z,42.75
2022-10-14T00:38:37.604Z,44.70
2022-10-14T00:39:00.343Z,44.33
2022-10-14T00:39:23.434Z,46.00
2022-10-14T00:39:46.203Z,44.50
2022-10-14T00:40:10.668Z,44.55
2022-10-14T00:40:33.348Z,41.20
2022-10-14T00:40:56.209Z,41.42
2022-10-14T00:41:21.574Z,42.13
2022-10-14T00:41:45.108Z,42.25
2022-10-14T00:42:10.392Z,49.25
2022-10-14T00:42:33.443Z,47.65
2022-10-14T00:42:56.160Z,43.00
2022-10-14T00:43:20.414Z,43.05
2022-10-14T00:43:54.939Z,44.70
2022-10-14T00:44:54.710Z,45.67
2022-10-14T00:45:20.474Z,44.22
2022-10-14T00:45:43.199Z,44.72
2022-10-14T00:46:06.030Z,50.38
2022-10-14T00:46:29.464Z,42.95
2022-10-14T00:46:52.250Z,42.78
2022-10-14T00:47:15.028Z,45.30
2022-10-14T00:47:37.746Z,42.78
2022-10-14T00:48:00.540Z,43.75
2022-10-14T00:48:24.703Z,42.70
2022-10-14T00:48:47.489Z,42.97
2022-10-14T00:49:12.338Z,40.53
2022-10-14T00:49:37.264Z,41.25
2022-10-14T00:50:00.809Z,42.65
2022-10-14T00:50:23.604Z,42.65
2022-10-14T00:50:47.518Z,40.90
2022-10-14T00:51:10.532Z,42.03
2022-10-14T00:51:33.532Z,41.88
2022-10-14T00:51:58.073Z,42.20
2022-10-14T00:52:22.243Z,44.00
2022-10-14T00:52:45.173Z,45.30
2022-10-14T00:53:07.834Z,42.40
2022-10-14T00:53:31.729Z,42.67
2022-10-14T00:53:54.499Z,40.20
2022-10-14T00:54:17.810Z,40.40
2022-10-14T00:54:42.538Z,40.85
2022-10-14T00:55:06.946Z,39.78
2022-10-14T00:55:29.679Z,41.03
2022-10-14T00:55:52.444Z,42.22
2022-10-14T00:56:16.293Z,43.08
2022-10-14T00:56:39.011Z,42.92
2022-10-14T00:57:02.187Z,44.13
2022-10-14T00:57:25.729Z,42.33
2022-10-14T00:57:51.278Z,44.80
2022-10-14T00:58:13.959Z,50.67
2022-10-14T00:58:38.228Z,49.13
2022-10-14T00:59:00.978Z,43.40
2022-10-14T00:59:23.816Z,43.15
2022-10-14T00:59:46.542Z,47.92
2022-10-14T01:00:11.544Z,46.95
2022-10-14T01:00:34.408Z,44.35
2022-10-14T01:00:57.131Z,47.00
2022-10-14T01:01:19.873Z,44.17
2022-10-14T01:01:42.564Z,43.30
2022-10-14T01:02:05.258Z,48.90
2022-10-14T01:02:27.910Z,46.67
2022-10-14T01:02:50.679Z,44.10
2022-10-14T01:03:18.969Z,40.90
2022-10-14T01:03:42.259Z,41.78
2022-10-14T01:04:05.058Z,46.30
2022-10-14T01:04:27.868Z,45.45
2022-10-14T01:04:50.639Z,41.53
2022-10-14T01:05:14.630Z,44.05
2022-10-14T01:05:40.796Z,45.83
2022-10-14T01:06:08.603Z,45.33
2022-10-14T01:06:40.954Z,44.35
2022-10-14T01:07:06.814Z,46.63
2022-10-14T01:07:38.868Z,40.03
2022-10-14T01:08:05.184Z,40.78
2022-10-14T01:08:30.320Z,41.13
2022-10-14T01:08:56.783Z,39.88
2022-10-14T01:09:22.890Z,40.38
2022-10-14T01:09:50.858Z,45.00
2022-10-14T01:10:17.347Z,43.28
2022-10-14T01:10:42.398Z,40.60
2022-10-14T01:11:08.323Z,40.42
2022-10-14T01:11:35.589Z,43.10
2022-10-14T01:12:27.541Z,44.20
2022-10-14T01:12:54.404Z,44.30
2022-10-14T01:13:21.918Z,43.80
2022-10-14T01:13:48.148Z,46.97
2022-10-14T01:14:14.719Z,42.05
2022-10-14T01:14:40.959Z,43.35
2022-10-14T01:15:06.383Z,44.03
2022-10-14T01:15:34.213Z,45.53
2022-10-14T01:16:04.310Z,45.30
2022-10-14T01:16:31.559Z,48.47
2022-10-14T01:16:57.507Z,45.45
2022-10-14T01:17:25.433Z,48.03
2022-10-14T01:17:53.639Z,48.00
2022-10-14T01:18:25.288Z,46.90
2022-10-14T01:18:59.932Z,44.65
2022-10-14T01:19:37.847Z,44.80
2022-10-14T01:20:11.782Z,46.03
2022-10-14T01:20:45.952Z,43.90
2022-10-14T01:21:12.902Z,44.30
2022-10-14T01:21:36.542Z,44.70
2022-10-14T01:22:00.802Z,45.28
2022-10-14T01:22:25.544Z,43.28
2022-10-14T01:22:54.392Z,43.35
2022-10-14T01:23:44.663Z,44.95
2022-10-14T01:24:37.043Z,48.50
2022-10-14T01:25:07.923Z,46.63
2022-10-14T01:25:32.168Z,51.08
2022-10-14T01:25:58.149Z,50.08
2022-10-14T01:26:37.178Z,45.72
2022-10-14T01:27:17.663Z,49.13
2022-10-14T01:27:58.147Z,48.50
2022-10-14T01:28:23.870Z,48.05
2022-10-14T01:28:51.616Z,49.60
2022-10-14T01:29:21.287Z,44.28
2022-10-14T01:30:08.623Z,46.08
2022-10-14T01:30:32.157Z,46.00
2022-10-14T01:30:56.749Z,44.50
2022-10-14T01:31:19.854Z,47.30
2022-10-14T01:31:44.954Z,46.40
2022-10-14T01:32:10.387Z,48.03
2022-10-14T01:32:34.947Z,46.75
2022-10-14T01:33:11.819Z,44.85
2022-10-14T01:33:37.302Z,48.78
2022-10-14T01:34:02.803Z,49.33
2022-10-14T01:34:28.548Z,47.78
2022-10-14T01:34:54.154Z,47.67
2022-10-14T01:35:21.716Z,48.28
2022-10-14T01:35:51.207Z,45.28
2022-10-14T01:36:16.644Z,49.05
2022-10-14T01:36:42.548Z,48.67
2022-10-14T01:37:06.949Z,47.25
2022-10-14T01:37:29.887Z,50.75
2022-10-14T01:37:53.998Z,47.97
2022-10-14T01:38:19.954Z,48.97
2022-10-14T01:38:44.862Z,48.90
2022-10-14T01:39:11.373Z,50.42
2022-10-14T01:39:38.292Z,49.05
2022-10-14T01:40:03.045Z,50.63
2022-10-14T01:40:29.358Z,50.60
2022-10-14T01:40:55.569Z,46.83
2022-10-14T01:41:20.430Z,47.88
2022-10-14T01:41:45.709Z,52.03
2022-10-14T01:42:09.949Z,48.45
2022-10-14T01:42:34.537Z,49.65
2022-10-14T01:42:57.754Z,49.30
2022-10-14T01:43:20.498Z,49.78
2022-10-14T01:43:43.839Z,49.28
2022-10-14T01:44:08.962Z,50.08
2022-10-14T01:44:31.665Z,50.20
2022-10-14T01:45:05.667Z,50.45
2022-10-14T01:45:29.289Z,49.33
2022-10-14T01:45:51.972Z,48.13
2022-10-14T01:46:14.710Z,48.30
2022-10-14T01:46:38.535Z,49.97
2022-10-14T01:47:01.281Z,47.30
2022-10-14T01:47:24.129Z,50.72
2022-10-14T01:47:47.704Z,48.47
2022-10-14T01:48:10.440Z,51.33
2022-10-14T01:48:35.028Z,48.03
2022-10-14T01:49:00.468Z,47.60
2022-10-14T01:49:25.434Z,45.75
2022-10-14T01:49:50.714Z,46.33
2022-10-14T01:50:15.024Z,45.15
2022-10-14T01:50:37.742Z,45.75
2022-10-14T01:51:02.445Z,46.60
2022-10-14T01:51:30.599Z,46.25
2022-10-14T01:51:54.698Z,48.38
2022-10-14T01:52:20.331Z,48.95
2022-10-14T01:52:46.411Z,48.22
2022-10-14T01:53:13.361Z,44.42
2022-10-14T01:53:38.294Z,48.28
2022-10-14T01:54:04.307Z,45.42
2022-10-14T01:54:30.083Z,48.42
2022-10-14T01:54:53.502Z,47.97
2022-10-14T01:55:18.458Z,46.22
2022-10-14T01:55:43.295Z,46.97
2022-10-14T01:56:05.962Z,55.33
2022-10-14T01:56:28.869Z,54.17
2022-10-14T01:56:51.589Z,54.03
2022-10-14T01:57:19.358Z,54.90
2022-10-14T01:57:42.093Z,62.35
2022-10-14T01:58:05.314Z,59.70
2022-10-14T01:58:28.273Z,63.38
2022-10-14T01:58:52.387Z,72.43
2022-10-14T01:59:15.469Z,88.47
2022-10-14T01:59:38.122Z,72.15
2022-10-14T02:00:02.368Z,118.78
2022-10-14T02:00:25.161Z,107.63
2022-10-14T02:00:48.189Z,121.30
2022-10-14T02:01:10.929Z,147.50
2022-10-14T02:01:35.079Z,164.85
2022-10-14T02:01:57.800Z,125.18
2022-10-14T02:02:23.615Z,127.35
2022-10-14T02:02:46.657Z,106.15
2022-10-14T02:03:10.522Z,88.18
2022-10-14T02:03:41.191Z,101.95
2022-10-14T02:04:04.001Z,109.78
2022-10-14T02:04:26.757Z,144.45
2022-10-14T02:04:49.487Z,99.07
2022-10-14T02:05:15.586Z,83.20
2022-10-14T02:05:41.311Z,97.18
2022-10-14T02:06:05.221Z,176.43
2022-10-14T02:06:29.776Z,87.72
2022-10-14T02:06:55.979Z,89.80
2022-10-14T02:07:20.084Z,77.40
2022-10-14T02:07:44.373Z,68.53
2022-10-14T02:08:11.605Z,66.70
2022-10-14T02:08:36.684Z,90.90
2022-10-14T02:09:04.401Z,91.53
2022-10-14T02:09:29.869Z,97.65
2022-10-14T02:09:56.509Z,85.18
2022-10-14T02:10:26.239Z,86.05
2022-10-14T02:11:01.987Z,81.93
2022-10-14T02:11:25.557Z,76.32
2022-10-14T02:11:53.600Z,77.07
2022-10-14T02:12:23.841Z,73.72
2022-10-14T02:12:53.139Z,131.93
2022-10-14T02:13:24.966Z,77.90
2022-10-14T02:13:58.565Z,75.93
2022-10-14T02:14:28.155Z,83.72
2022-10-14T02:14:54.194Z,81.82
2022-10-14T02:15:21.350Z,93.93
2022-10-14T02:15:50.575Z,97.03
2022-10-14T02:16:17.279Z,90.95
2022-10-14T02:16:41.861Z,87.68
2022-10-14T02:17:06.360Z,130.93
2022-10-14T02:17:30.224Z,140.15
2022-10-14T02:17:55.260Z,195.73
2022-10-14T02:18:22.096Z,203.82
2022-10-14T02:18:49.277Z,100.05
2022-10-14T02:19:18.898Z,100.15
2022-10-14T02:19:44.745Z,80.32
2022-10-14T02:20:13.370Z,81.57
2022-10-14T02:20:37.976Z,71.78
2022-10-14T02:21:02.881Z,70.22
2022-10-14T02:21:29.200Z,107.93
2022-10-14T02:21:54.230Z,124.55
2022-10-14T02:22:21.551Z,72.50
2022-10-14T02:22:46.876Z,72.47
2022-10-14T02:23:12.336Z,71.50
2022-10-14T02:23:38.396Z,65.32
2022-10-14T02:24:04.149Z,98.20
2022-10-14T02:24:30.164Z,81.00
2022-10-14T02:24:54.428Z,82.95
2022-10-14T02:25:18.300Z,80.78
2022-10-14T02:25:41.931Z,97.68
2022-10-14T02:26:04.626Z,62.95
2022-10-14T02:26:27.444Z,57.28
2022-10-14T02:26:50.961Z,75.80
2022-10-14T02:27:15.285Z,96.15
2022-10-14T02:27:37.941Z,75.38
2022-10-14T02:28:00.780Z,97.13
2022-10-14T02:28:25.013Z,86.95
2022-10-14T02:28:47.674Z,57.25
2022-10-14T02:29:10.383Z,60.03
2022-10-14T02:29:33.074Z,51.20
2022-10-14T02:29:55.824Z,53.70
2022-10-14T02:30:19.999Z,69.57
2022-10-14T02:30:47.037Z,65.30
2022-10-14T02:31:12.331Z,124.20
2022-10-14T02:31:35.439Z,74.78
2022-10-14T02:31:58.611Z,62.08
2022-10-14T02:32:21.537Z,62.78
2022-10-14T02:32:44.314Z,68.85
2022-10-14T02:33:07.034Z,59.17
2022-10-14T02:33:33.311Z,61.08
2022-10-14T02:33:58.080Z,60.53
2022-10-14T02:34:21.889Z,58.05
2022-10-14T02:34:45.410Z,62.95
2022-10-14T02:35:09.936Z,73.40
2022-10-14T02:35:35.456Z,66.57
2022-10-14T02:35:58.234Z,64.72
2022-10-14T02:36:22.112Z,65.00
2022-10-14T02:36:44.874Z,97.10
2022-10-14T02:37:07.660Z,104.75
2022-10-14T02:37:33.212Z,96.97
2022-10-14T02:37:55.995Z,76.05
2022-10-14T02:38:19.356Z,76.57
2022-10-14T02:38:42.157Z,135.10
2022-10-14T02:39:05.052Z,101.60
2022-10-14T02:39:30.320Z,71.95
2022-10-14T02:39:55.845Z,70.68
2022-10-14T02:40:20.640Z,85.32
2022-10-14T02:40:45.295Z,126.88
2022-10-14T02:41:14.736Z,151.80
2022-10-14T02:41:37.592Z,96.93
2022-10-14T02:42:00.370Z,143.38
2022-10-14T02:42:23.677Z,183.57
2022-10-14T02:42:46.671Z,154.68
2022-10-14T02:43:10.609Z,177.38
2022-10-14T02:43:33.335Z,191.68
2022-10-14T02:43:56.020Z,122.55
2022-10-14T02:44:18.715Z,130.63
2022-10-14T02:44:53.291Z,156.32
2022-10-14T02:45:15.997Z,102.13
2022-10-14T02:45:40.351Z,76.45
2022-10-14T02:46:03.202Z,77.25
2022-10-14T02:46:25.911Z,77.55
2022-10-14T02:46:49.483Z,81.10
2022-10-14T02:47:12.226Z,97.45
2022-10-14T02:47:34.888Z,77.00
2022-10-14T02:47:57.600Z,101.68
2022-10-14T02:48:20.976Z,79.95
2022-10-14T02:48:43.675Z,252.70
2022-10-14T02:49:06.514Z,195.02
2022-10-14T02:49:29.317Z,70.70
2022-10-14T02:49:52.434Z,74.40
2022-10-14T02:50:15.271Z,154.27
2022-10-14T02:50:37.946Z,94.53
2022-10-14T02:51:00.636Z,99.35
2022-10-14T02:51:23.455Z,107.47
2022-10-14T02:51:46.071Z,127.10
2022-10-14T02:52:08.796Z,259.88
2022-10-14T02:52:31.517Z,147.50
2022-10-14T02:52:54.237Z,155.38
2022-10-14T02:53:16.963Z,185.15
2022-10-14T02:53:39.734Z,120.85
2022-10-14T02:54:02.639Z,86.90
2022-10-14T02:54:25.345Z,78.43
2022-10-14T02:54:48.029Z,80.32
2022-10-14T02:55:10.731Z,72.63
2022-10-14T02:55:33.510Z,66.88
2022-10-14T02:55:56.284Z,78.25
2022-10-14T02:56:19.138Z,67.75
2022-10-14T02:56:41.849Z,82.63
2022-10-14T02:57:04.616Z,106.55
2022-10-14T02:57:27.292Z,73.93
2022-10-14T02:57:50.081Z,69.63
2022-10-14T02:58:12.794Z,91.88
2022-10-14T02:58:35.611Z,87.72
2022-10-14T02:58:58.379Z,93.50
2022-10-14T02:59:21.121Z,135.02
2022-10-14T02:59:43.857Z,143.60
2022-10-14T03:00:07.474Z,86.85
2022-10-14T03:00:30.364Z,68.78
2022-10-14T03:00:54.519Z,71.25
2022-10-14T03:01:17.276Z,60.15
2022-10-14T03:01:40.010Z,78.65
2022-10-14T03:02:02.836Z,93.03
2022-10-14T03:02:25.710Z,65.35
2022-10-14T03:02:48.484Z,118.25
2022-10-14T03:03:11.230Z,95.38
2022-10-14T03:03:33.923Z,68.38
2022-10-14T03:03:56.703Z,68.07
2022-10-14T03:04:19.470Z,62.35
2022-10-14T03:04:42.159Z,60.75
2022-10-14T03:05:05.386Z,70.70
2022-10-14T03:05:28.116Z,78.18
2022-10-14T03:05:50.860Z,78.95
2022-10-14T03:06:13.609Z,60.67
2022-10-14T03:06:36.319Z,70.35
2022-10-14T03:06:59.039Z,72.93
2022-10-14T03:07:21.765Z,74.65
2022-10-14T03:07:44.709Z,78.93
2022-10-14T03:08:07.489Z,72.63
2022-10-14T03:08:30.966Z,87.53
2022-10-14T03:08:53.874Z,100.43
2022-10-14T03:09:16.744Z,92.47
2022-10-14T03:09:39.429Z,117.43
2022-10-14T03:10:03.003Z,126.28
2022-10-14T03:10:25.838Z,137.80
2022-10-14T03:10:48.499Z,75.35
2022-10-14T03:11:11.341Z,72.88
2022-10-14T03:11:34.214Z,62.50
2022-10-14T03:11:56.981Z,69.55
2022-10-14T03:12:20.204Z,63.53
2022-10-14T03:12:43.427Z,63.72
2022-10-14T03:13:06.119Z,71.60
2022-10-14T03:13:28.843Z,96.43
2022-10-14T03:13:51.518Z,86.80
2022-10-14T03:14:14.386Z,74.90
2022-10-14T03:14:37.107Z,57.30
2022-10-14T03:14:59.758Z,69.13
2022-10-14T03:15:22.627Z,58.42
2022-10-14T03:15:45.287Z,72.28
2022-10-14T03:16:09.455Z,70.45
2022-10-14T03:16:32.381Z,151.07
2022-10-14T03:16:55.180Z,256.83
2022-10-14T03:17:17.956Z,203.18
2022-10-14T03:17:40.730Z,204.52
2022-10-14T03:18:03.540Z,164.32
2022-10-14T03:18:26.400Z,193.60
2022-10-14T03:18:49.136Z,215.15
2022-10-14T03:19:11.875Z,178.48
2022-10-14T03:19:34.560Z,72.60
2022-10-14T03:19:58.546Z,131.30
2022-10-14T03:20:21.279Z,255.20
2022-10-14T03:20:46.880Z,285.00
2022-10-14T03:21:09.560Z,214.70
2022-10-14T03:21:35.114Z,272.63
2022-10-14T03:21:57.860Z,403.45
2022-10-14T03:22:20.844Z,374.25
2022-10-14T03:22:43.670Z,127.60
2022-10-14T03:23:06.601Z,89.53
2022-10-14T03:23:29.360Z,106.70
2022-10-14T03:23:53.137Z,90.03
2022-10-14T03:24:16.074Z,117.07
2022-10-14T03:24:38.704Z,91.80
2022-10-14T03:25:01.449Z,93.10
2022-10-14T03:25:24.329Z,91.90
2022-10-14T03:25:47.053Z,86.10
2022-10-14T03:26:13.809Z,99.47
2022-10-14T03:26:36.963Z,86.50
2022-10-14T03:26:59.678Z,83.57
2022-10-14T03:27:22.480Z,98.90
2022-10-14T03:27:45.320Z,124.05
2022-10-14T03:28:08.138Z,128.20
2022-10-14T03:28:30.988Z,132.82
2022-10-14T03:28:53.855Z,173.57
2022-10-14T03:29:16.684Z,121.20
2022-10-14T03:29:39.469Z,146.13
2022-10-14T03:30:02.205Z,207.15
2022-10-14T03:30:26.053Z,101.65
2022-10-14T03:30:48.913Z,121.47
2022-10-14T03:31:13.139Z,144.98
2022-10-14T03:31:35.844Z,139.65
2022-10-14T03:31:58.564Z,87.57
2022-10-14T03:32:21.492Z,219.43
2022-10-14T03:32:44.409Z,364.20
2022-10-14T03:33:07.715Z,354.90
2022-10-14T03:33:33.707Z,398.08
2022-10-14T03:33:56.670Z,424.40
2022-10-14T03:34:19.703Z,382.52
2022-10-14T03:34:42.738Z,305.25
2022-10-14T03:35:06.157Z,178.45
2022-10-14T03:35:28.836Z,172.65
2022-10-14T03:35:51.557Z,255.85
2022-10-14T03:36:14.282Z,382.08
2022-10-14T03:36:36.922Z,319.48
2022-10-14T03:36:59.607Z,309.13
2022-10-14T03:37:22.372Z,253.20
2022-10-14T03:37:45.193Z,345.63
2022-10-14T03:38:07.914Z,329.05
2022-10-14T03:38:30.688Z,271.35
2022-10-14T03:38:53.445Z,280.25
2022-10-14T03:39:16.178Z,345.52
2022-10-14T03:39:39.044Z,143.77
2022-10-14T03:40:01.757Z,254.43
2022-10-14T03:40:24.481Z,126.38
2022-10-14T03:40:47.351Z,155.27
2022-10-14T03:41:10.030Z,128.60
2022-10-14T03:41:32.780Z,94.22
2022-10-14T03:41:55.498Z,144.98
2022-10-14T03:42:21.062Z,314.95
2022-10-14T03:42:44.021Z,250.10
2022-10-14T03:43:06.762Z,187.90
2022-10-14T03:43:29.797Z,128.07
2022-10-14T03:43:52.692Z,205.85
2022-10-14T03:44:15.531Z,231.07
2022-10-14T03:44:38.279Z,82.88
2022-10-14T03:45:02.724Z,127.50
2022-10-14T03:45:25.541Z,132.82
2022-10-14T03:45:48.283Z,88.75
2022-10-14T03:46:12.550Z,99.25
2022-10-14T03:46:35.264Z,79.93
2022-10-14T03:46:58.461Z,260.05
2022-10-14T03:47:21.782Z,192.25
2022-10-14T03:47:44.573Z,109.50
2022-10-14T03:48:07.261Z,163.45
2022-10-14T03:48:29.944Z,148.45
2022-10-14T03:48:53.254Z,135.50
2022-10-14T03:49:15.998Z,102.45
2022-10-14T03:49:41.599Z,74.85
2022-10-14T03:50:05.256Z,94.35
2022-10-14T03:50:28.946Z,83.20
2022-10-14T03:50:51.670Z,143.52
2022-10-14T03:51:14.400Z,168.52
2022-10-14T03:51:37.195Z,122.00
2022-10-14T03:51:59.868Z,81.28
2022-10-14T03:52:22.822Z,125.25
2022-10-14T03:52:47.120Z,287.02
2022-10-14T03:53:10.600Z,356.92
2022-10-14T03:53:34.401Z,144.93
2022-10-14T03:53:57.143Z,90.30
2022-10-14T03:54:19.940Z,89.88
2022-10-14T03:54:42.716Z,101.53
2022-10-14T03:55:09.426Z,76.72
2022-10-14T03:55:32.145Z,95.72
2022-10-14T03:55:54.770Z,93.55
2022-10-14T03:56:17.440Z,141.25
2022-10-14T03:56:40.210Z,219.40
2022-10-14T03:57:02.912Z,176.02
2022-10-14T03:57:26.311Z,72.97
2022-10-14T03:57:49.016Z,80.72
2022-10-14T03:58:11.923Z,87.95
2022-10-14T03:58:34.660Z,84.43
2022-10-14T03:58:57.355Z,92.78
2022-10-14T03:59:20.157Z,104.68
2022-10-14T03:59:43.005Z,87.68
2022-10-14T04:00:07.370Z,112.85
2022-10-14T04:00:30.173Z,136.93
2022-10-14T04:00:52.957Z,108.63
2022-10-14T04:01:17.230Z,335.17
2022-10-14T04:01:40.117Z,292.10
2022-10-14T04:02:05.955Z,285.98
2022-10-14T04:02:28.696Z,427.25
2022-10-14T04:02:51.364Z,270.02
2022-10-14T04:03:14.045Z,272.80
2022-10-14T04:03:36.786Z,294.80
2022-10-14T04:03:59.486Z,284.17
2022-10-14T04:04:22.249Z,291.15
2022-10-14T04:04:45.031Z,388.23
2022-10-14T04:05:08.289Z,325.67
2022-10-14T04:05:34.004Z,185.55
2022-10-14T04:05:56.728Z,307.17
2022-10-14T04:06:19.467Z,258.25
2022-10-14T04:06:42.188Z,147.52
2022-10-14T04:07:05.070Z,80.75
2022-10-14T04:07:27.790Z,139.30
2022-10-14T04:07:50.539Z,166.75
2022-10-14T04:08:13.411Z,126.63
2022-10-14T04:08:36.282Z,168.07
2022-10-14T04:08:59.166Z,161.07
2022-10-14T04:09:21.917Z,192.85
2022-10-14T04:09:44.582Z,95.45
2022-10-14T04:10:08.906Z,128.88
2022-10-14T04:10:31.732Z,103.80
2022-10-14T04:10:54.488Z,81.78
2022-10-14T04:11:17.646Z,70.53
2022-10-14T04:11:40.332Z,77.72
2022-10-14T04:12:03.034Z,67.97
2022-10-14T04:12:25.812Z,66.68
2022-10-14T04:12:48.586Z,65.57
2022-10-14T04:13:11.407Z,72.10
2022-10-14T04:13:34.152Z,65.75
2022-10-14T04:13:58.253Z,59.33
2022-10-14T04:14:20.955Z,64.50
2022-10-14T04:14:43.621Z,94.28
2022-10-14T04:15:07.528Z,75.45
2022-10-14T04:15:30.543Z,65.55
2022-10-14T04:15:53.215Z,76.78
2022-10-14T04:16:17.378Z,72.13
2022-10-14T04:16:40.046Z,64.28
2022-10-14T04:17:02.831Z,68.78
2022-10-14T04:17:25.790Z,74.78
2022-10-14T04:17:48.488Z,62.10
2022-10-14T04:18:11.385Z,91.40
2022-10-14T04:18:34.188Z,76.22
2022-10-14T04:18:58.760Z,66.53
2022-10-14T04:19:21.542Z,63.70
2022-10-14T04:19:44.301Z,61.70
2022-10-14T04:20:07.553Z,53.75
2022-10-14T04:20:30.268Z,65.05
2022-10-14T04:20:53.942Z,63.88
2022-10-14T04:21:16.642Z,57.17
2022-10-14T04:21:39.373Z,51.03
2022-10-14T04:22:02.106Z,52.00
2022-10-14T04:22:25.017Z,58.95
2022-10-14T04:22:47.887Z,54.97
2022-10-14T04:23:10.607Z,58.28
2022-10-14T04:23:34.563Z,60.72
2022-10-14T04:23:57.424Z,51.33
2022-10-14T04:24:20.162Z,67.55
2022-10-14T04:24:43.002Z,58.22
2022-10-14T04:25:07.415Z,81.03
2022-10-14T04:25:30.100Z,52.30
2022-10-14T04:25:52.860Z,45.90
2022-10-14T04:26:15.593Z,56.70
2022-10-14T04:26:38.293Z,66.13
2022-10-14T04:27:00.965Z,53.92
2022-10-14T04:27:23.660Z,52.22
2022-10-14T04:27:46.402Z,50.70
2022-10-14T04:28:09.122Z,52.95
2022-10-14T04:28:31.896Z,49.85
2022-10-14T04:28:54.954Z,59.03
2022-10-14T04:29:17.731Z,48.92
2022-10-14T04:29:40.601Z,51.05
2022-10-14T04:30:03.392Z,50.00
2022-10-14T04:30:26.085Z,57.97
2022-10-14T04:30:48.816Z,63.92
2022-10-14T04:31:11.537Z,67.43
2022-10-14T04:31:35.618Z,89.63
2022-10-14T04:31:58.257Z,52.45
2022-10-14T04:32:21.329Z,50.85
2022-10-14T04:32:44.353Z,143.13
2022-10-14T04:33:07.137Z,119.55
2022-10-14T04:33:29.821Z,84.90
2022-10-14T04:33:52.699Z,71.07
2022-10-14T04:34:15.452Z,52.67
2022-10-14T04:34:38.620Z,63.97
2022-10-14T04:35:01.295Z,53.47
2022-10-14T04:35:24.004Z,55.42
2022-10-14T04:35:46.739Z,66.45
2022-10-14T04:36:09.786Z,73.35
2022-10-14T04:36:32.505Z,60.35
2022-10-14T04:36:55.295Z,70.28
2022-10-14T04:37:18.149Z,72.68
2022-10-14T04:37:40.848Z,72.97
2022-10-14T04:38:03.619Z,60.50
2022-10-14T04:38:26.344Z,64.68
2022-10-14T04:38:49.024Z,73.35
2022-10-14T04:39:11.868Z,121.18
2022-10-14T04:39:34.585Z,124.78
2022-10-14T04:39:57.268Z,72.78
2022-10-14T04:40:20.648Z,56.45
2022-10-14T04:40:45.304Z,56.47
2022-10-14T04:41:07.996Z,69.72
2022-10-14T04:41:30.715Z,131.80
2022-10-14T04:41:53.453Z,99.85
2022-10-14T04:42:16.725Z,74.90
2022-10-14T04:42:39.511Z,116.20
2022-10-14T04:43:02.230Z,94.40
2022-10-14T04:43:24.951Z,81.50
2022-10-14T04:43:47.697Z,73.53
2022-10-14T04:44:10.480Z,100.30
2022-10-14T04:44:33.191Z,328.08
2022-10-14T04:44:55.887Z,222.68
2022-10-14T04:45:18.536Z,98.55
2022-10-14T04:45:42.036Z,73.18
2022-10-14T04:46:05.945Z,140.55
2022-10-14T04:46:28.725Z,186.85
2022-10-14T04:46:52.805Z,79.25
2022-10-14T04:47:15.611Z,59.60
2022-10-14T04:47:38.418Z,63.75
2022-10-14T04:48:01.136Z,58.92
2022-10-14T04:48:23.866Z,79.28
2022-10-14T04:48:47.945Z,78.18
2022-10-14T04:49:10.972Z,55.20
2022-10-14T04:49:33.646Z,57.80
2022-10-14T04:49:56.521Z,54.53
2022-10-14T04:50:19.477Z,60.20
2022-10-14T04:50:42.167Z,76.95
2022-10-14T04:51:05.453Z,105.82
2022-10-14T04:51:28.152Z,109.00
2022-10-14T04:51:51.212Z,86.45
2022-10-14T04:52:14.001Z,70.20
2022-10-14T04:52:36.686Z,51.15
2022-10-14T04:52:59.480Z,61.65
2022-10-14T04:53:22.634Z,66.00
2022-10-14T04:53:45.675Z,80.97
2022-10-14T04:54:08.305Z,95.85
2022-10-14T04:54:31.342Z,64.20
2022-10-14T04:54:55.258Z,56.53
2022-10-14T04:55:18.055Z,66.30
2022-10-14T04:55:40.657Z,69.00
2022-10-14T04:56:03.320Z,76.60
2022-10-14T04:56:26.071Z,65.20
2022-10-14T04:56:48.711Z,98.90
2022-10-14T04:57:11.855Z,76.22
2022-10-14T04:57:34.557Z,67.78
2022-10-14T04:57:57.268Z,62.58
2022-10-14T04:58:20.207Z,73.25
2022-10-14T04:58:42.951Z,75.60
2022-10-14T04:59:05.763Z,75.68
2022-10-14T04:59:28.503Z,67.72
2022-10-14T04:59:51.290Z,77.13
2022-10-14T05:00:14.952Z,84.88
2022-10-14T05:00:37.669Z,118.60
2022-10-14T05:01:00.367Z,83.47
2022-10-14T05:01:23.112Z,67.80
2022-10-14T05:01:46.093Z,73.45
2022-10-14T05:02:10.784Z,85.00
2022-10-14T05:02:33.593Z,148.35
2022-10-14T05:02:56.411Z,171.93
2022-10-14T05:03:19.123Z,132.90
2022-10-14T05:03:41.909Z,175.88
2022-10-14T05:04:04.847Z,338.08
2022-10-14T05:04:27.613Z,234.75
2022-10-14T05:04:50.373Z,171.82
2022-10-14T05:05:15.080Z,285.15
2022-10-14T05:05:37.851Z,329.42
2022-10-14T05:06:00.857Z,286.60
2022-10-14T05:06:23.583Z,316.63
2022-10-14T05:06:46.252Z,124.53
2022-10-14T05:07:08.948Z,105.07
2022-10-14T05:07:31.726Z,127.05
2022-10-14T05:07:54.456Z,154.35